Time;durP1;ratioP1;P1;durP2;ratioP2;P2;SDS_P1;SDS_P2;PMS_P1;PMS_P2;Temp;Humidity;BMP_temperature;BMP_pressure;BME280_temperature;BME280_humidity;BME280_pressure;Samples;Min_cycle;Max_cycle;Signal;HPM_P1;HPM_P2
2022/06/27 00:00:57;;;;;;;1.88;0.80;;;;;;;22.86;61.70;95799.97;4996747;28;20044;-77
2022/06/27 00:03:23;;;;;;;1.40;0.77;;;;;;;22.81;62.61;95812.25;4974455;28;20031;-78
2022/06/27 00:05:48;;;;;;;0.80;0.60;;;;;;;22.66;65.46;95835.31;4989292;28;20408;-78
2022/06/27 00:08:14;;;;;;;1.00;0.63;;;;;;;22.27;72.75;95849.47;4989416;28;20041;-78
2022/06/27 00:10:41;;;;;;;1.25;0.80;;;;;;;22.25;74.21;95848.88;4989493;28;20381;-78
2022/06/27 00:13:06;;;;;;;1.65;0.90;;;;;;;22.10;75.96;95843.25;4988786;28;20042;-78
2022/06/27 00:15:32;;;;;;;1.23;0.68;;;;;;;22.08;75.85;95832.75;4988337;28;20557;-78
2022/06/27 00:17:58;;;;;;;0.95;0.60;;;;;;;22.12;75.04;95825.88;4979599;28;20084;-78
2022/06/27 00:20:24;;;;;;;1.13;0.70;;;;;;;22.04;76.46;95814.75;4987052;28;20038;-78
2022/06/27 00:22:53;;;;;;;2.70;0.90;;;;;;;22.01;77.84;95831.31;4986737;28;20030;-78
2022/06/27 00:25:19;;;;;;;3.70;1.60;;;;;;;21.87;80.89;95846.84;4971310;28;20043;-78
2022/06/27 00:27:45;;;;;;;3.42;1.00;;;;;;;21.76;82.48;95859.22;4989208;28;20045;-77
2022/06/27 00:30:11;;;;;;;1.38;0.70;;;;;;;21.72;83.51;95863.41;4995800;28;20034;-78
2022/06/27 00:32:38;;;;;;;1.58;0.90;;;;;;;21.67;86.13;95876.72;4972259;28;20085;-78
2022/06/27 00:35:08;;;;;;;1.30;0.90;;;;;;;21.48;89.84;95880.59;4989259;28;20034;-78
2022/06/27 00:37:35;;;;;;;3.75;1.20;;;;;;;21.29;94.84;95890.59;4989183;28;20038;-78
2022/06/27 00:40:05;;;;;;;3.30;1.08;;;;;;;21.15;100.00;95920.25;4989967;28;20018;-78
2022/06/27 00:42:31;;;;;;;5.55;1.58;;;;;;;21.00;100.00;95929.81;4988999;28;20059;-78
2022/06/27 00:44:56;;;;;;;6.93;1.70;;;;;;;20.58;100.00;95949.38;4989441;28;20090;-78
2022/06/27 00:47:23;;;;;;;6.63;2.33;;;;;;;20.14;100.00;95958.63;4989787;28;20329;-78
2022/06/27 00:49:50;;;;;;;3.78;2.03;;;;;;;19.82;100.00;95969.50;4992091;28;20105;-78
2022/06/27 00:52:16;;;;;;;4.15;2.40;;;;;;;19.75;100.00;95971.41;4988967;28;20053;-78
2022/06/27 00:54:44;;;;;;;4.85;2.97;;;;;;;19.66;100.00;95996.78;4988749;28;20046;-78
2022/06/27 00:57:13;;;;;;;6.30;3.33;;;;;;;19.45;100.00;96028.16;4970410;28;20018;-77
2022/06/27 00:59:40;;;;;;;5.40;3.83;;;;;;;19.16;100.00;96066.13;4983259;28;20129;-78
2022/06/27 01:02:07;;;;;;;9.13;3.67;;;;;;;19.10;100.00;96096.31;4965091;28;20077;-77
2022/06/27 01:04:34;;;;;;;6.20;2.97;;;;;;;19.34;100.00;96124.03;4968802;28;20042;-77
2022/06/27 01:06:59;;;;;;;4.07;2.95;;;;;;;19.18;100.00;96139.53;4978995;28;20034;-77
2022/06/27 01:09:25;;;;;;;5.13;3.28;;;;;;;18.96;100.00;96151.56;4986702;28;20122;-78
2022/06/27 01:11:51;;;;;;;5.70;3.03;;;;;;;18.86;100.00;96165.34;4985872;28;20073;-77
2022/06/27 01:14:18;;;;;;;6.78;3.17;;;;;;;18.86;100.00;96169.84;4969292;28;20034;-77
2022/06/27 01:16:45;;;;;;;5.20;3.35;;;;;;;18.78;100.00;96176.25;4986093;28;20034;-77
2022/06/27 01:19:14;;;;;;;6.00;2.97;;;;;;;18.49;100.00;96185.56;4987228;28;20038;-77
2022/06/27 01:21:46;;;;;;;6.75;3.55;;;;;;;18.43;100.00;96197.84;4986484;28;20657;-77
2022/06/27 01:24:12;;;;;;;4.87;2.97;;;;;;;18.16;100.00;96233.53;4987949;28;20097;-78
2022/06/27 01:26:38;;;;;;;5.95;3.13;;;;;;;17.95;100.00;96258.53;4991715;28;20468;-79
2022/06/27 01:29:04;;;;;;;6.05;3.22;;;;;;;17.91;100.00;96290.06;4966503;28;20396;-78
2022/06/27 01:31:31;;;;;;;7.38;3.45;;;;;;;17.77;100.00;96309.66;4975934;28;20503;-78
2022/06/27 01:33:57;;;;;;;5.18;2.67;;;;;;;17.72;100.00;96307.59;4990305;28;20812;-78
2022/06/27 01:39:15;;;;;;;10.98;3.42;;;;;;;17.50;100.00;96376.03;4988410;28;20035;-79
2022/06/27 01:41:47;;;;;;;6.32;2.88;;;;;;;17.18;100.00;96375.72;4972115;28;20077;-76
2022/06/27 01:44:14;;;;;;;15.38;3.33;;;;;;;16.88;100.00;96308.75;4989551;28;20034;-79
2022/06/27 01:46:43;;;;;;;4.45;1.58;;;;;;;16.64;100.00;96288.78;4991699;28;20077;-79
2022/06/27 01:49:10;;;;;;;2.38;1.17;;;;;;;16.62;100.00;96279.34;4985506;28;20129;-78
2022/06/27 01:51:39;;;;;;;3.60;1.67;;;;;;;16.58;100.00;96247.06;4995230;28;20041;-79
2022/06/27 01:54:07;;;;;;;5.88;1.60;;;;;;;16.55;100.00;96241.34;4994818;28;20045;-78
2022/06/27 01:56:34;;;;;;;5.20;1.35;;;;;;;16.58;100.00;96209.09;4994431;28;20062;-78
2022/06/27 01:59:00;;;;;;;3.83;1.73;;;;;;;16.64;100.00;96189.72;4982777;28;20034;-78
2022/06/27 02:01:26;;;;;;;4.78;1.77;;;;;;;16.66;100.00;96175.19;4981570;28;20041;-79
2022/06/27 02:03:53;;;;;;;4.88;1.25;;;;;;;16.52;100.00;96139.00;4996022;28;20034;-78
2022/06/27 02:06:19;;;;;;;5.97;1.48;;;;;;;16.42;100.00;96104.88;4990974;28;20495;-78
2022/06/27 02:08:46;;;;;;;3.60;1.17;;;;;;;16.37;100.00;96042.81;4999879;28;20034;-78
2022/06/27 02:11:15;;;;;;;4.35;1.30;;;;;;;16.23;100.00;95957.00;5001170;28;20035;-79
2022/06/27 02:13:42;;;;;;;4.95;1.40;;;;;;;16.29;100.00;95944.78;4993976;28;20428;-78
2022/06/27 02:16:12;;;;;;;4.38;1.40;;;;;;;16.29;100.00;95961.53;4987530;28;20061;-78
2022/06/27 02:18:39;;;;;;;3.75;1.25;;;;;;;16.36;100.00;95962.34;4978709;28;20044;-78
2022/06/27 02:21:07;;;;;;;2.10;1.10;;;;;;;16.35;100.00;95965.22;4987115;28;20046;-77
2022/06/27 02:23:32;;;;;;;2.37;0.93;;;;;;;16.53;100.00;95948.69;4993260;28;20034;-78
2022/06/27 02:25:59;;;;;;;2.67;1.10;;;;;;;16.44;100.00;95956.06;4997461;28;20390;-78
2022/06/27 02:28:28;;;;;;;4.30;1.47;;;;;;;16.42;100.00;95939.50;4996615;28;20034;-78
2022/06/27 02:30:54;;;;;;;2.67;1.30;;;;;;;16.51;100.00;95948.91;4994980;28;20041;-78
2022/06/27 02:33:22;;;;;;;4.50;1.15;;;;;;;16.60;100.00;95963.63;4996868;28;20121;-78
2022/06/27 02:35:51;;;;;;;4.60;1.35;;;;;;;16.71;100.00;95996.72;4997350;28;20072;-78
2022/06/27 02:38:17;;;;;;;2.00;0.90;;;;;;;16.59;100.00;96004.44;4997670;28;20041;-78
2022/06/27 02:40:46;;;;;;;1.30;0.85;;;;;;;16.67;100.00;96014.06;4994861;28;20027;-78
2022/06/27 02:43:13;;;;;;;3.05;0.98;;;;;;;16.71;100.00;96013.47;4997699;28;20034;-78
2022/06/27 02:45:45;;;;;;;1.88;0.93;;;;;;;16.68;100.00;96000.59;4996744;28;20045;-78
2022/06/27 02:48:16;;;;;;;2.20;1.05;;;;;;;16.67;100.00;96000.81;4981859;28;20034;-79
2022/06/27 02:50:46;;;;;;;2.78;1.30;;;;;;;16.59;100.00;96003.63;4993748;28;20045;-78
2022/06/27 02:53:16;;;;;;;2.70;1.20;;;;;;;16.64;100.00;96009.16;4980274;28;20072;-79
2022/06/27 02:55:53;;;;;;;2.78;1.20;;;;;;;16.61;100.00;96023.66;4997378;28;20033;-78
2022/06/27 02:58:23;;;;;;;4.05;1.50;;;;;;;16.45;100.00;96024.03;4996655;28;20045;-78
2022/06/27 03:00:51;;;;;;;4.13;1.25;;;;;;;16.42;100.00;96019.13;4987867;28;20179;-78
2022/06/27 03:03:17;;;;;;;3.25;1.20;;;;;;;16.53;100.00;96017.72;5003020;28;20065;-77
2022/06/27 03:06:03;;;;;;;2.58;1.08;;;;;;;16.53;100.00;96012.41;4991741;28;20028;-79
2022/06/27 03:08:46;;;;;;;2.75;1.08;;;;;;;16.52;100.00;96011.59;4983245;28;20032;-78
2022/06/27 03:11:17;;;;;;;2.92;1.02;;;;;;;16.54;100.00;96001.59;4998187;28;20045;-78
2022/06/27 03:13:44;;;;;;;3.58;1.33;;;;;;;16.56;100.00;95982.81;4998496;28;20125;-78
2022/06/27 03:16:11;;;;;;;3.15;1.00;;;;;;;16.63;100.00;96000.38;4981717;28;20038;-80
2022/06/27 03:18:37;;;;;;;2.58;1.50;;;;;;;16.57;100.00;96005.69;4996801;28;20100;-78
2022/06/27 03:21:21;;;;;;;3.75;1.50;;;;;;;16.54;100.00;95996.28;4999109;28;20045;-78
2022/06/27 03:23:55;;;;;;;4.63;1.20;;;;;;;16.46;100.00;95992.00;4987980;28;20033;-78
2022/06/27 03:26:20;;;;;;;2.55;1.00;;;;;;;16.44;100.00;95986.06;4980186;28;20039;-79
2022/06/27 03:28:49;;;;;;;3.97;1.50;;;;;;;16.44;100.00;95971.97;4980982;28;20112;-78
2022/06/27 03:31:15;;;;;;;2.78;1.10;;;;;;;16.41;100.00;95972.38;4994546;28;20050;-78
2022/06/27 03:33:43;;;;;;;4.53;1.50;;;;;;;16.45;100.00;95978.91;4995033;28;20510;-78
2022/06/27 03:36:24;;;;;;;2.38;1.40;;;;;;;16.46;100.00;95989.34;4980561;28;20456;-78
2022/06/27 03:38:50;;;;;;;4.78;1.75;;;;;;;16.36;100.00;95988.06;4995360;28;20064;-78
2022/06/27 03:41:17;;;;;;;2.22;1.08;;;;;;;16.12;100.00;95984.97;4997500;28;20030;-78
2022/06/27 03:43:43;;;;;;;2.08;1.10;;;;;;;16.21;100.00;95980.31;4995159;28;20041;-78
2022/06/27 03:46:09;;;;;;;3.15;1.13;;;;;;;16.24;100.00;95967.44;4993352;28;20050;-78
2022/06/27 03:51:32;;;;;;;3.25;1.30;;;;;;;16.35;100.00;95984.59;4992150;28;20022;-77
2022/06/27 03:53:58;;;;;;;4.97;1.60;;;;;;;16.41;100.00;95991.78;4991878;28;20038;-77
2022/06/27 03:56:24;;;;;;;3.97;1.30;;;;;;;16.32;100.00;95992.97;4992299;28;20129;-78
2022/06/27 03:58:50;;;;;;;4.47;1.45;;;;;;;16.32;100.00;95986.84;4988103;28;20049;-78
2022/06/27 04:01:16;;;;;;;2.05;1.08;;;;;;;16.36;100.00;95982.75;4992521;28;20026;-78
2022/06/27 04:03:42;;;;;;;2.55;1.25;;;;;;;16.34;100.00;95984.81;4976771;28;20157;-78
2022/06/27 04:06:17;;;;;;;3.00;1.23;;;;;;;16.30;100.00;95986.22;4991557;28;20030;-78
2022/06/27 04:08:45;;;;;;;2.53;1.30;;;;;;;16.35;100.00;95991.75;4977516;28;20042;-78
2022/06/27 04:11:11;;;;;;;3.47;1.55;;;;;;;16.40;100.00;96005.25;4992856;28;20057;-78
2022/06/27 04:13:40;;;;;;;2.08;1.20;;;;;;;16.41;100.00;95993.63;4996052;28;20046;-78
2022/06/27 04:16:25;;;;;;;4.55;1.58;;;;;;;16.41;100.00;95990.97;4996490;28;20046;-78
2022/06/27 04:19:29;;;;;;;2.05;1.30;;;;;;;16.35;100.00;95991.75;5011399;28;20042;-78
2022/06/27 04:22:16;;;;;;;5.82;1.27;;;;;;;16.43;100.00;95986.25;4994016;28;20057;-78
2022/06/27 04:25:05;;;;;;;2.90;1.50;;;;;;;16.46;100.00;95994.66;4989613;28;20062;-78
2022/06/27 04:27:40;;;;;;;4.60;1.30;;;;;;;16.41;100.00;95997.06;4994879;28;20038;-78
2022/06/27 04:30:08;;;;;;;2.22;0.90;;;;;;;16.43;100.00;96004.81;4981681;28;20098;-77
2022/06/27 04:32:34;;;;;;;1.83;1.02;;;;;;;16.40;100.00;96003.41;4998115;28;20093;-78
2022/06/27 04:35:01;;;;;;;4.78;1.42;;;;;;;16.52;100.00;96002.81;4976663;28;20089;-77
2022/06/27 04:37:27;;;;;;;2.15;0.85;;;;;;;16.56;100.00;96002.19;4991044;28;20041;-78
2022/06/27 04:40:19;;;;;;;2.70;1.08;;;;;;;16.54;100.00;96000.78;4991028;28;20038;-77
2022/06/27 04:42:48;;;;;;;4.68;1.48;;;;;;;16.58;100.00;95994.84;4979106;28;20049;-78
2022/06/27 04:45:15;;;;;;;5.88;1.10;;;;;;;16.76;100.00;96001.44;4990205;28;20038;-78
2022/06/27 04:47:47;;;;;;;3.72;1.10;;;;;;;16.83;100.00;95999.59;4990053;28;20041;-77
2022/06/27 04:50:18;;;;;;;2.47;1.17;;;;;;;16.81;100.00;96013.09;4989826;28;20058;-78
2022/06/27 04:52:46;;;;;;;5.50;1.40;;;;;;;16.66;100.00;96018.53;4986825;28;20042;-77
2022/06/27 04:55:12;;;;;;;3.85;1.05;;;;;;;16.81;100.00;96018.41;4989822;28;20057;-77
2022/06/27 04:57:42;;;;;;;2.78;1.20;;;;;;;16.83;100.00;96031.47;4990586;28;20113;-78
2022/06/27 05:00:11;;;;;;;3.67;1.05;;;;;;;16.99;100.00;96035.56;4990677;28;20431;-77
2022/06/27 05:02:55;;;;;;;2.00;1.05;;;;;;;17.16;100.00;96011.03;4989955;28;20097;-77
2022/06/27 05:05:22;;;;;;;4.00;1.67;;;;;;;17.19;100.00;96015.94;4986217;28;20042;-77
2022/06/27 05:07:47;;;;;;;4.70;1.20;;;;;;;17.17;100.00;96012.69;4972570;28;20034;-77
2022/06/27 05:10:13;;;;;;;5.13;1.70;;;;;;;17.25;100.00;96008.19;4998210;28;20030;-78
2022/06/27 05:12:39;;;;;;;3.58;1.50;;;;;;;17.27;100.00;96004.28;4991953;28;20035;-78
2022/06/27 05:15:06;;;;;;;4.55;1.40;;;;;;;17.34;100.00;95988.34;4990461;28;20101;-78
2022/06/27 05:17:33;;;;;;;3.67;1.50;;;;;;;17.15;100.00;95987.34;4995894;28;20093;-79
2022/06/27 05:20:02;;;;;;;3.72;1.50;;;;;;;17.24;100.00;95998.56;4987419;28;20476;-78
2022/06/27 05:22:28;;;;;;;3.25;1.85;;;;;;;17.50;100.00;95995.03;4997341;28;20041;-78
2022/06/27 05:24:54;;;;;;;4.07;1.38;;;;;;;17.70;100.00;95989.66;4989216;28;20046;-79
2022/06/27 05:27:19;;;;;;;2.95;1.20;;;;;;;17.80;100.00;95990.88;4982837;28;20068;-76
2022/06/27 05:29:45;;;;;;;6.22;1.85;;;;;;;17.83;100.00;95979.00;4997640;28;20459;-76
2022/06/27 05:32:13;;;;;;;3.97;1.60;;;;;;;18.02;100.00;95972.78;4997137;28;20110;-78
2022/06/27 05:34:39;;;;;;;2.85;1.48;;;;;;;18.24;100.00;95965.31;5004493;28;20062;-77
2022/06/27 05:37:05;;;;;;;4.47;1.70;;;;;;;18.61;100.00;95974.28;4999114;28;20022;-78
2022/06/27 05:39:33;;;;;;;2.63;1.00;;;;;;;18.68;100.00;95976.06;4994893;28;20038;-78
2022/06/27 05:41:59;;;;;;;3.97;1.83;;;;;;;18.77;100.00;95983.59;4991789;28;20038;-77
2022/06/27 05:44:27;;;;;;;6.45;2.28;;;;;;;18.41;100.00;95989.59;4997477;28;20061;-77
2022/06/27 05:46:56;;;;;;;3.88;2.05;;;;;;;18.34;100.00;96004.75;4999575;28;20149;-78
2022/06/27 05:49:59;;;;;;;5.47;2.17;;;;;;;18.52;100.00;95983.56;4985277;28;20464;-78
2022/06/27 05:52:25;;;;;;;4.32;1.70;;;;;;;18.67;100.00;95993.09;4991281;28;20404;-78
2022/06/27 05:54:52;;;;;;;5.22;1.92;;;;;;;18.69;100.00;95997.16;4999072;28;20030;-76
2022/06/27 05:57:19;;;;;;;3.20;1.45;;;;;;;19.21;100.00;95992.47;4979892;28;20136;-78
2022/06/27 05:59:46;;;;;;;2.50;1.20;;;;;;;19.37;100.00;95987.59;4996553;28;20030;-77
2022/06/27 06:02:12;;;;;;;2.92;1.25;;;;;;;19.43;100.00;95987.53;4984495;28;20444;-80
2022/06/27 06:04:39;;;;;;;2.85;1.10;;;;;;;19.70;100.00;95995.28;5015753;28;20022;-79
2022/06/27 06:07:08;;;;;;;2.35;1.10;;;;;;;19.89;100.00;95996.94;4985184;28;20121;-77
2022/06/27 06:09:33;;;;;;;2.65;1.10;;;;;;;20.10;100.00;95973.47;5001087;28;20099;-79
2022/06/27 06:12:01;;;;;;;4.45;1.67;;;;;;;20.13;100.00;95978.38;4992546;28;20484;-79
2022/06/27 06:14:32;;;;;;;3.88;1.45;;;;;;;20.01;100.00;95988.97;4994973;28;20038;-78
2022/06/27 06:16:58;;;;;;;3.03;1.50;;;;;;;20.05;100.00;95992.00;4999952;28;20448;-79
2022/06/27 06:19:24;;;;;;;3.10;1.27;;;;;;;20.78;100.00;95991.84;4998433;28;20029;-78
2022/06/27 06:21:50;;;;;;;3.75;1.95;;;;;;;21.06;100.00;95985.84;5000062;28;20018;-79
2022/06/27 06:24:15;;;;;;;7.32;2.00;;;;;;;20.40;100.00;95992.16;4998042;28;20104;-79
2022/06/27 06:26:41;;;;;;;4.53;1.55;;;;;;;20.66;100.00;96002.50;5009235;28;20041;-78
2022/06/27 06:29:14;;;;;;;4.63;1.40;;;;;;;21.30;100.00;96009.94;5001812;28;20742;-79
2022/06/27 06:31:45;;;;;;;4.57;1.30;;;;;;;21.58;100.00;96017.28;5000093;28;20041;-80
2022/06/27 06:34:13;;;;;;;2.85;1.70;;;;;;;21.88;100.00;96028.66;4999907;28;20058;-79
2022/06/27 06:36:41;;;;;;;3.00;1.58;;;;;;;22.42;100.00;96022.25;4998977;28;20038;-80
2022/06/27 06:39:09;;;;;;;2.95;1.25;;;;;;;22.89;100.00;96027.38;4998033;28;20106;-79
2022/06/27 06:41:36;;;;;;;2.30;1.17;;;;;;;22.67;100.00;96036.13;4999831;28;20034;-79
2022/06/27 06:44:05;;;;;;;3.63;1.40;;;;;;;22.78;100.00;96043.28;4983818;28;20126;-79
2022/06/27 06:46:49;;;;;;;2.97;1.10;;;;;;;22.80;100.00;96043.03;4998661;28;20109;-79
2022/06/27 06:49:31;;;;;;;2.80;0.88;;;;;;;22.88;100.00;96053.38;4995606;28;20042;-80
2022/06/27 06:51:57;;;;;;;2.67;1.10;;;;;;;22.99;100.00;96060.56;4998151;28;20023;-79
2022/06/27 06:54:26;;;;;;;2.88;0.80;;;;;;;23.05;100.00;96053.44;5002918;28;20436;-80
2022/06/27 06:56:52;;;;;;;1.17;0.75;;;;;;;23.28;100.00;96058.66;5004163;28;20025;-78
2022/06/27 06:59:19;;;;;;;2.05;0.80;;;;;;;23.91;100.00;96059.38;5008618;28;20030;-79
2022/06/27 07:01:46;;;;;;;5.40;1.00;;;;;;;23.24;100.00;96067.44;4998715;28;20030;-80
2022/06/27 07:04:14;;;;;;;3.70;1.15;;;;;;;22.81;100.00;96076.84;4982276;28;20014;-80
2022/06/27 07:06:40;;;;;;;4.75;0.95;;;;;;;23.18;100.00;96071.09;4993102;28;20034;-80
2022/06/27 07:09:06;;;;;;;4.72;0.98;;;;;;;22.54;100.00;96071.25;4993265;28;20383;-78
2022/06/27 07:11:32;;;;;;;1.20;0.60;;;;;;;22.89;100.00;96081.00;4979863;28;20041;-79
2022/06/27 07:13:58;;;;;;;3.15;0.90;;;;;;;23.55;100.00;96076.78;4988793;28;20034;-79
2022/06/27 07:16:26;;;;;;;2.88;1.20;;;;;;;23.74;100.00;96077.34;5002426;28;20132;-79
2022/06/27 07:18:56;;;;;;;1.27;0.73;;;;;;;23.51;100.00;96072.97;4992600;28;20046;-79
2022/06/27 07:21:24;;;;;;;2.67;1.00;;;;;;;22.94;100.00;96079.28;4974637;28;20046;-79
2022/06/27 07:23:50;;;;;;;2.67;0.75;;;;;;;23.32;100.00;96085.81;4991334;28;20022;-79
2022/06/27 07:26:18;;;;;;;5.50;2.67;;;;;;;22.55;100.00;96075.56;4997170;28;20065;-78
2022/06/27 07:28:45;;;;;;;6.15;2.08;;;;;;;21.97;100.00;96084.53;5002209;28;20468;-78
2022/06/27 07:31:12;;;;;;;2.58;1.20;;;;;;;21.89;100.00;96091.84;4973906;28;20039;-78
2022/06/27 07:33:39;;;;;;;5.80;1.13;;;;;;;21.60;100.00;96095.47;4992116;28;20027;-78
2022/06/27 07:36:06;;;;;;;2.13;0.60;;;;;;;21.82;100.00;96099.19;4996210;28;20128;-79
2022/06/27 07:38:39;;;;;;;1.95;0.80;;;;;;;21.80;100.00;96101.28;4974614;28;20018;-79
2022/06/27 07:41:09;;;;;;;2.00;0.57;;;;;;;21.49;100.00;96104.28;4985992;28;20095;-79
2022/06/27 07:43:36;;;;;;;3.45;0.93;;;;;;;21.46;100.00;96100.22;4990849;28;20042;-79
2022/06/27 07:46:02;;;;;;;2.53;0.77;;;;;;;21.45;100.00;96103.13;4990397;28;20038;-78
2022/06/27 07:48:29;;;;;;;1.55;0.70;;;;;;;21.61;100.00;96107.78;4987228;28;20077;-78
2022/06/27 07:50:56;;;;;;;2.53;0.70;;;;;;;21.33;100.00;96105.75;4972580;28;20171;-79
2022/06/27 07:53:22;;;;;;;1.35;0.77;;;;;;;21.28;100.00;96098.41;4992376;28;20411;-79
2022/06/27 07:56:00;;;;;;;6.78;1.35;;;;;;;21.27;100.00;96107.50;4990262;28;20026;-79
2022/06/27 07:58:33;;;;;;;2.47;0.93;;;;;;;21.19;100.00;96115.81;4990571;28;20038;-78
2022/06/27 08:01:03;;;;;;;;;;;;;;;20.99;100.00;96123.31;4985974;28;20451;-78
2022/06/27 08:03:40;;;;;;;2.42;0.70;;;;;;;20.89;100.00;96127.38;4975413;28;20390;-78
2022/06/27 08:06:20;;;;;;;2.20;0.80;;;;;;;20.92;100.00;96124.25;4979707;28;20035;-80
2022/06/27 08:08:50;;;;;;;2.38;0.85;;;;;;;20.75;100.00;96135.78;4981694;28;20022;-78
2022/06/27 08:11:18;;;;;;;5.95;1.20;;;;;;;20.88;100.00;96133.75;4994133;28;20030;-79
2022/06/27 08:13:45;;;;;;;2.55;1.30;;;;;;;21.56;100.00;96127.22;4973664;28;20034;-77
2022/06/27 08:16:14;;;;;;;2.90;0.90;;;;;;;21.29;100.00;96140.16;4987939;28;20035;-79
2022/06/27 08:18:44;;;;;;;2.83;1.13;;;;;;;21.15;100.00;96136.88;4974344;28;20591;-79
2022/06/27 08:21:10;;;;;;;4.47;1.20;;;;;;;21.50;100.00;96146.06;4989701;28;20125;-79
2022/06/27 08:23:38;;;;;;;2.47;1.27;;;;;;;21.80;100.00;96146.00;4991631;28;20080;-80
2022/06/27 08:26:07;;;;;;;3.83;0.93;;;;;;;22.01;100.00;96139.22;4997662;28;20033;-79
2022/06/27 08:28:35;;;;;;;1.50;0.82;;;;;;;22.78;100.00;96145.16;4996289;28;20061;-80
2022/06/27 08:31:07;;;;;;;2.47;0.88;;;;;;;22.80;100.00;96148.44;4992773;28;20026;-80
2022/06/27 08:33:34;;;;;;;3.63;0.90;;;;;;;22.93;100.00;96154.59;4996796;28;20034;-79
2022/06/27 08:36:02;;;;;;;5.95;1.50;;;;;;;22.18;100.00;96156.25;4996660;28;20027;-80
2022/06/27 08:38:29;;;;;;;4.50;1.08;;;;;;;22.61;100.00;96160.38;4979673;28;20507;-80
2022/06/27 08:40:56;;;;;;;3.17;0.95;;;;;;;23.18;100.00;96160.44;4994912;28;20056;-79
2022/06/27 08:43:23;;;;;;;2.13;0.77;;;;;;;23.36;100.00;96162.09;4972005;28;20093;-80
2022/06/27 08:45:51;;;;;;;4.03;1.00;;;;;;;22.74;100.00;96167.34;4989340;28;20064;-79
2022/06/27 08:48:17;;;;;;;2.50;0.90;;;;;;;22.85;100.00;96168.34;4991092;28;20022;-79
2022/06/27 08:50:45;;;;;;;6.70;2.30;;;;;;;23.54;100.00;96174.50;4976650;28;20050;-79
2022/06/27 08:53:15;;;;;;;13.05;9.07;;;;;;;23.47;100.00;96165.75;4995010;28;20034;-79
2022/06/27 08:55:46;;;;;;;5.25;2.20;;;;;;;24.05;100.00;96161.91;4994477;28;20088;-80
2022/06/27 08:58:13;;;;;;;5.20;3.35;;;;;;;23.68;100.00;96146.28;4996233;28;20034;-80
2022/06/27 09:00:42;;;;;;;5.15;3.22;;;;;;;24.03;100.00;96153.25;4990422;28;20041;-79
2022/06/27 09:03:08;;;;;;;6.47;3.53;;;;;;;23.50;100.00;96151.84;4990302;28;20081;-78
2022/06/27 09:05:34;;;;;;;6.63;3.97;;;;;;;23.45;100.00;96159.84;4991599;28;20140;-79
2022/06/27 09:08:03;;;;;;;2.47;0.80;;;;;;;24.17;100.00;96149.16;4994641;28;20070;-79
2022/06/27 09:10:37;;;;;;;1.35;0.82;;;;;;;24.48;100.00;96152.31;5001988;28;20486;-80
2022/06/27 09:13:17;;;;;;;2.63;1.10;;;;;;;24.40;100.00;96153.53;4991020;28;20145;-79
2022/06/27 09:16:01;;;;;;;3.00;1.02;;;;;;;24.44;100.00;96154.66;4995849;28;20038;-80
2022/06/27 09:18:31;;;;;;;4.10;0.95;;;;;;;24.81;100.00;96155.91;4975089;28;20042;-79
2022/06/27 09:21:18;;;;;;;1.38;0.90;;;;;;;24.98;100.00;96162.03;4994249;28;20165;-79
2022/06/27 09:23:54;;;;;;;8.48;5.65;;;;;;;24.65;100.00;96158.44;4990388;28;20042;-79
2022/06/27 09:26:25;;;;;;;10.60;3.72;;;;;;;23.81;100.00;96158.59;5001258;28;20023;-79
2022/06/27 09:29:27;;;;;;;1.70;1.08;;;;;;;24.05;100.00;96155.72;4981052;28;20327;-79
2022/06/27 09:31:55;;;;;;;3.78;1.20;;;;;;;24.11;100.00;96155.53;4976116;28;20042;-79
2022/06/27 09:34:23;;;;;;;1.60;0.80;;;;;;;23.99;100.00;96155.63;4976267;28;21217;-77
2022/06/27 09:36:54;;;;;;;2.53;0.90;;;;;;;24.11;100.00;96158.22;4990792;28;20034;-78
2022/06/27 09:39:24;;;;;;;1.67;0.95;;;;;;;24.08;100.00;96153.34;4995324;28;20037;-78
2022/06/27 09:41:59;;;;;;;5.38;0.93;;;;;;;23.73;100.00;96162.47;4986382;28;20395;-78
2022/06/27 09:44:26;;;;;;;2.58;1.00;;;;;;;23.65;100.00;96154.00;4989840;28;20459;-77
2022/06/27 09:47:04;;;;;;;1.85;0.90;;;;;;;23.41;100.00;96169.44;4992680;28;20156;-79
2022/06/27 09:49:33;;;;;;;1.02;0.80;;;;;;;23.28;100.00;96174.03;4995058;28;20053;-81
2022/06/27 09:52:04;;;;;;;3.90;0.90;;;;;;;22.87;100.00;96179.63;4995857;28;20491;-77
2022/06/27 09:54:33;;;;;;;3.22;1.23;;;;;;;22.66;100.00;96189.13;4993485;28;20061;-80
2022/06/27 09:57:00;;;;;;;6.25;3.80;;;;;;;21.89;100.00;96190.09;4987844;28;20026;-77
2022/06/27 09:59:26;;;;;;;1.50;0.80;;;;;;;22.05;100.00;96196.63;4987784;28;20121;-77
2022/06/27 10:01:55;;;;;;;1.05;0.82;;;;;;;22.20;100.00;96202.38;4988936;28;20034;-77
2022/06/27 10:04:24;;;;;;;2.63;1.00;;;;;;;22.10;100.00;96192.22;4992195;28;20041;-78
2022/06/27 10:06:51;;;;;;;4.00;0.90;;;;;;;21.89;100.00;96200.78;4992331;28;20050;-77
2022/06/27 10:09:20;;;;;;;1.05;0.80;;;;;;;21.88;100.00;96199.97;4997818;28;20095;-77
2022/06/27 10:11:46;;;;;;;1.85;1.00;;;;;;;21.40;100.00;96192.91;4994840;28;20109;-78
2022/06/27 10:14:23;;;;;;;3.30;1.50;;;;;;;21.17;100.00;96201.66;4995656;28;20041;-77
2022/06/27 10:16:57;;;;;;;2.47;1.30;;;;;;;21.10;100.00;96216.16;4994038;28;20034;-76
2022/06/27 10:19:28;;;;;;;1.83;1.33;;;;;;;20.93;100.00;96215.97;4995533;28;20058;-76
2022/06/27 10:21:56;;;;;;;2.50;1.40;;;;;;;21.65;100.00;96200.75;5002770;28;20141;-77
2022/06/27 10:24:21;;;;;;;3.08;1.73;;;;;;;21.63;100.00;96207.41;4993085;28;20065;-77
2022/06/27 10:26:50;;;;;;;3.85;2.13;;;;;;;21.68;100.00;96204.84;4995905;28;20038;-77
2022/06/27 10:29:34;;;;;;;5.05;1.95;;;;;;;21.82;100.00;96211.63;4995605;28;20034;-76
2022/06/27 10:32:05;;;;;;;10.10;6.88;;;;;;;22.32;100.00;96207.72;4993487;28;20034;-77
2022/06/27 10:34:39;;;;;;;4.32;2.80;;;;;;;22.32;100.00;96210.41;5012447;28;20034;-77
2022/06/27 10:37:26;;;;;;;3.20;2.00;;;;;;;21.82;100.00;96219.66;4991229;28;20484;-77
2022/06/27 10:40:20;;;;;;;2.75;1.80;;;;;;;21.90;100.00;96218.50;4991879;28;20046;-79
2022/06/27 10:42:49;;;;;;;3.47;1.80;;;;;;;21.69;100.00;96235.91;4978803;28;20065;-76
2022/06/27 10:45:21;;;;;;;4.68;2.20;;;;;;;22.00;100.00;96233.97;4991329;28;20030;-79
2022/06/27 10:47:47;;;;;;;2.88;1.88;;;;;;;21.56;100.00;96234.28;4993671;28;20124;-79
2022/06/27 10:50:15;;;;;;;4.22;2.22;;;;;;;21.59;100.00;96233.78;4993613;28;20057;-80
2022/06/27 10:52:42;;;;;;;3.58;2.28;;;;;;;21.89;100.00;96247.13;4991897;28;20066;-77
2022/06/27 10:55:26;;;;;;;4.75;2.67;;;;;;;21.45;100.00;96248.41;4976219;28;20042;-78
2022/06/27 10:57:54;;;;;;;4.18;2.75;;;;;;;21.39;100.00;96254.66;4991369;28;20042;-78
2022/06/27 11:00:36;;;;;;;4.60;2.65;;;;;;;21.35;100.00;96266.88;4993549;28;20057;-77
2022/06/27 11:03:02;;;;;;;3.95;2.78;;;;;;;21.26;100.00;96269.03;4992764;28;20076;-77
2022/06/27 11:05:52;;;;;;;3.63;2.95;;;;;;;20.98;100.00;96282.91;4995126;28;20644;-79
2022/06/27 11:08:20;;;;;;;4.60;3.58;;;;;;;20.98;100.00;96280.25;4996003;28;20475;-78
2022/06/27 11:10:46;;;;;;;4.45;3.50;;;;;;;20.90;100.00;96292.06;4999735;28;20049;-78
2022/06/27 11:13:41;;;;;;;4.43;3.53;;;;;;;20.81;100.00;96289.91;4995424;28;20061;-77
2022/06/27 11:16:12;;;;;;;5.57;3.50;;;;;;;20.51;100.00;96290.63;4988419;28;20479;-77
2022/06/27 11:18:42;;;;;;;5.35;3.75;;;;;;;20.57;100.00;96297.75;4973783;28;20052;-79
2022/06/27 11:21:13;;;;;;;6.13;3.83;;;;;;;20.33;100.00;96298.56;4992043;28;20038;-78
2022/06/27 11:24:03;;;;;;;4.18;3.10;;;;;;;20.76;100.00;96306.63;4978664;28;20068;-78
2022/06/27 11:26:34;;;;;;;6.85;4.05;;;;;;;20.99;100.00;96305.13;5009384;28;20872;-78
2022/06/27 11:32:11;;;;;;;5.70;3.00;;;;;;;21.72;100.00;96291.66;5000454;28;20041;-78
2022/06/27 11:34:48;;;;;;;5.32;3.17;;;;;;;21.90;100.00;96288.13;4982660;28;20097;-78
2022/06/27 11:37:17;;;;;;;3.17;2.42;;;;;;;22.00;100.00;96284.84;4991882;28;20033;-78
2022/06/27 11:39:57;;;;;;;3.78;2.80;;;;;;;21.86;100.00;96287.75;4982095;28;20098;-79
2022/06/27 11:42:28;;;;;;;4.60;2.33;;;;;;;21.67;100.00;96277.34;4998414;28;20042;-78
2022/06/27 11:45:09;;;;;;;3.42;2.38;;;;;;;21.37;100.00;96278.97;4997596;28;20132;-77
2022/06/27 11:47:40;;;;;;;4.10;2.40;;;;;;;21.24;100.00;96284.47;4993360;28;20045;-78